sensor_id;sensor_type;location;lat;lon;timestamp;pressure;altitude;pressure_sealevel;temperature;humidity
51229;BME280;37304;52.216;6.874;2022-12-18T00:00:48;102631.53;;;-8.09;100.00
51229;BME280;37304;52.216;6.874;2022-12-18T00:05:50;102628.59;;;-8.14;100.00
51229;BME280;37304;52.216;6.874;2022-12-18T00:10:51;102625.94;;;-8.15;100.00
51229;BME280;37304;52.216;6.874;2022-12-18T00:15:51;102625.94;;;-8.15;100.00
51229;BME280;37304;52.216;6.874;2022-12-18T00:20:51;102629.59;;;-8.12;100.00
51229;BME280;37304;52.216;6.874;2022-12-18T00:25:52;102634.66;;;-8.12;100.00
51229;BME280;37304;52.216;6.874;2022-12-18T00:31:20;102628.38;;;-8.07;100.00
51229;BME280;37304;52.216;6.874;2022-12-18T00:36:23;102615.91;;;-8.05;100.00
51229;BME280;37304;52.216;6.874;2022-12-18T00:41:25;102617.69;;;-8.04;100.00
51229;BME280;37304;52.216;6.874;2022-12-18T00:46:45;102619.56;;;-8.01;100.00
51229;BME280;37304;52.216;6.874;2022-12-18T00:51:46;102616.97;;;-7.93;100.00
51229;BME280;37304;52.216;6.874;2022-12-18T00:56:47;102613.69;;;-7.92;100.00
51229;BME280;37304;52.216;6.874;2022-12-18T01:01:47;102615.00;;;-7.86;100.00
51229;BME280;37304;52.216;6.874;2022-12-18T01:06:48;102616.28;;;-7.81;100.00
51229;BME280;37304;52.216;6.874;2022-12-18T01:11:48;102622.22;;;-7.81;100.00
51229;BME280;37304;52.216;6.874;2022-12-18T01:16:49;102611.38;;;-7.80;100.00
51229;BME280;37304;52.216;6.874;2022-12-18T01:21:50;102601.53;;;-7.77;100.00
51229;BME280;37304;52.216;6.874;2022-12-18T01:26:50;102592.19;;;-7.78;100.00
51229;BME280;37304;52.216;6.874;2022-12-18T01:31:51;102597.34;;;-7.76;100.00
51229;BME280;37304;52.216;6.874;2022-12-18T01:36:51;102608.75;;;-7.71;100.00
51229;BME280;37304;52.216;6.874;2022-12-18T01:41:54;102613.03;;;-7.70;100.00
51229;BME280;37304;52.216;6.874;2022-12-18T01:47:04;102594.53;;;-7.60;100.00
51229;BME280;37304;52.216;6.874;2022-12-18T01:52:04;102609.06;;;-7.57;100.00
51229;BME280;37304;52.216;6.874;2022-12-18T01:57:05;102601.22;;;-7.61;100.00
51229;BME280;37304;52.216;6.874;2022-12-18T02:02:06;102608.66;;;-7.62;100.00
51229;BME280;37304;52.216;6.874;2022-12-18T02:07:12;102608.81;;;-7.61;100.00
51229;BME280;37304;52.216;6.874;2022-12-18T02:12:20;102601.22;;;-7.61;100.00
51229;BME280;37304;52.216;6.874;2022-12-18T02:18:10;102603.13;;;-7.58;100.00
51229;BME280;37304;52.216;6.874;2022-12-18T02:22:52;102613.84;;;-7.61;100.00
51229;BME280;37304;52.216;6.874;2022-12-18T02:27:57;102601.22;;;-7.61;100.00
51229;BME280;37304;52.216;6.874;2022-12-18T02:33:00;102601.69;;;-7.65;100.00
51229;BME280;37304;52.216;6.874;2022-12-18T02:38:04;102603.09;;;-7.68;100.00
51229;BME280;37304;52.216;6.874;2022-12-18T02:43:10;102595.25;;;-7.71;100.00
51229;BME280;37304;52.216;6.874;2022-12-18T02:48:12;102591.72;;;-7.73;100.00
51229;BME280;37304;52.216;6.874;2022-12-18T03:04:14;102591.41;;;-7.87;100.00
51229;BME280;37304;52.216;6.874;2022-12-18T03:09:27;102593.50;;;-7.92;100.00
51229;BME280;37304;52.216;6.874;2022-12-18T03:14:32;102594.78;;;-7.86;100.00
51229;BME280;37304;52.216;6.874;2022-12-18T03:19:34;102588.47;;;-7.92;100.00
51229;BME280;37304;52.216;6.874;2022-12-18T03:24:35;102604.25;;;-7.94;100.00
51229;BME280;37304;52.216;6.874;2022-12-18T03:29:43;102591.06;;;-8.00;100.00
51229;BME280;37304;52.216;6.874;2022-12-18T03:34:48;102584.72;;;-8.06;100.00
51229;BME280;37304;52.216;6.874;2022-12-18T03:39:50;102584.63;;;-8.07;100.00
51229;BME280;37304;52.216;6.874;2022-12-18T03:45:02;102572.47;;;-8.11;100.00
51229;BME280;37304;52.216;6.874;2022-12-18T03:50:35;102576.03;;;-8.09;100.00
51229;BME280;37304;52.216;6.874;2022-12-18T03:55:37;102556.09;;;-8.06;100.00
51229;BME280;37304;52.216;6.874;2022-12-18T04:00:38;102563.44;;;-7.99;100.00
51229;BME280;37304;52.216;6.874;2022-12-18T04:05:40;102563.72;;;-7.96;100.00
51229;BME280;37304;52.216;6.874;2022-12-18T04:10:43;102561.22;;;-7.85;100.00
51229;BME280;37304;52.216;6.874;2022-12-18T04:15:43;102559.38;;;-7.78;100.00
51229;BME280;37304;52.216;6.874;2022-12-18T04:20:44;102554.44;;;-7.76;100.00
51229;BME280;37304;52.216;6.874;2022-12-18T04:25:46;102547.41;;;-7.70;100.00
51229;BME280;37304;52.216;6.874;2022-12-18T04:30:47;102550.81;;;-7.69;100.00
51229;BME280;37304;52.216;6.874;2022-12-18T04:35:47;102548.16;;;-7.71;100.00
51229;BME280;37304;52.216;6.874;2022-12-18T04:40:48;102558.50;;;-7.68;100.00
51229;BME280;37304;52.216;6.874;2022-12-18T04:45:48;102556.63;;;-7.70;100.00
51229;BME280;37304;52.216;6.874;2022-12-18T04:50:48;102544.75;;;-7.71;100.00
51229;BME280;37304;52.216;6.874;2022-12-18T04:55:49;102543.47;;;-7.77;100.00
51229;BME280;37304;52.216;6.874;2022-12-18T05:00:49;102534.63;;;-7.82;100.00
51229;BME280;37304;52.216;6.874;2022-12-18T05:05:50;102528.31;;;-7.87;100.00
51229;BME280;37304;52.216;6.874;2022-12-18T05:11:05;102529.97;;;-7.77;100.00
51229;BME280;37304;52.216;6.874;2022-12-18T05:16:07;102533.25;;;-7.78;100.00
51229;BME280;37304;52.216;6.874;2022-12-18T05:21:08;102536.66;;;-7.78;100.00
51229;BME280;37304;52.216;6.874;2022-12-18T05:26:08;102546.13;;;-7.75;100.00
51229;BME280;37304;52.216;6.874;2022-12-18T05:31:14;102551.66;;;-7.79;100.00
51229;BME280;37304;52.216;6.874;2022-12-18T05:36:14;102549.38;;;-7.86;100.00
51229;BME280;37304;52.216;6.874;2022-12-18T05:41:15;102555.53;;;-7.93;100.00
51229;BME280;37304;52.216;6.874;2022-12-18T05:46:17;102555.66;;;-7.92;100.00
51229;BME280;37304;52.216;6.874;2022-12-18T05:51:20;102555.53;;;-7.93;100.00
51229;BME280;37304;52.216;6.874;2022-12-18T05:56:22;102570.53;;;-7.95;100.00
51229;BME280;37304;52.216;6.874;2022-12-18T06:01:25;102567.16;;;-7.95;100.00
51229;BME280;37304;52.216;6.874;2022-12-18T06:06:27;102574.06;;;-7.93;100.00
51229;BME280;37304;52.216;6.874;2022-12-18T06:11:28;102577.97;;;-7.96;100.00
51229;BME280;37304;52.216;6.874;2022-12-18T06:16:29;102587.78;;;-7.99;100.00
51229;BME280;37304;52.216;6.874;2022-12-18T06:21:31;102592.84;;;-7.99;100.00
51229;BME280;37304;52.216;6.874;2022-12-18T06:26:31;102598.09;;;-8.07;100.00
51229;BME280;37304;52.216;6.874;2022-12-18T06:31:32;102592.44;;;-8.04;100.00
51229;BME280;37304;52.216;6.874;2022-12-18T06:36:32;102594.97;;;-8.04;100.00
51229;BME280;37304;52.216;6.874;2022-12-18T06:41:33;102596.00;;;-8.02;100.00
51229;BME280;37304;52.216;6.874;2022-12-18T06:46:33;102586.66;;;-8.03;100.00
51229;BME280;37304;52.216;6.874;2022-12-18T06:51:33;102571.38;;;-8.05;100.00
51229;BME280;37304;52.216;6.874;2022-12-18T06:56:34;102572.19;;;-7.95;100.00
51229;BME280;37304;52.216;6.874;2022-12-18T07:01:34;102551.25;;;-7.94;100.00
51229;BME280;37304;52.216;6.874;2022-12-18T07:06:35;102541.69;;;-7.88;100.00
51229;BME280;37304;52.216;6.874;2022-12-18T07:11:35;102535.50;;;-7.81;100.00
51229;BME280;37304;52.216;6.874;2022-12-18T07:16:35;102540.19;;;-7.76;100.00
51229;BME280;37304;52.216;6.874;2022-12-18T07:21:36;102535.91;;;-7.77;100.00
51229;BME280;37304;52.216;6.874;2022-12-18T07:26:36;102528.44;;;-7.75;100.00
51229;BME280;37304;52.216;6.874;2022-12-18T07:31:36;102527.09;;;-7.71;100.00
51229;BME280;37304;52.216;6.874;2022-12-18T07:36:37;102532.75;;;-7.74;100.00
51229;BME280;37304;52.216;6.874;2022-12-18T07:41:38;102540.72;;;-7.69;100.00
51229;BME280;37304;52.216;6.874;2022-12-18T07:46:38;102540.34;;;-7.64;100.00
51229;BME280;37304;52.216;6.874;2022-12-18T07:51:39;102540.75;;;-7.59;100.00
51229;BME280;37304;52.216;6.874;2022-12-18T07:56:39;102547.72;;;-7.56;100.00
51229;BME280;37304;52.216;6.874;2022-12-18T08:01:39;102550.59;;;-7.52;100.00
51229;BME280;37304;52.216;6.874;2022-12-18T08:06:40;102533.69;;;-7.42;100.00
51229;BME280;37304;52.216;6.874;2022-12-18T08:11:43;102533.59;;;-7.34;100.00
51229;BME280;37304;52.216;6.874;2022-12-18T08:16:43;102533.59;;;-7.23;100.00
51229;BME280;37304;52.216;6.874;2022-12-18T08:21:44;102520.22;;;-7.12;100.00
51229;BME280;37304;52.216;6.874;2022-12-18T08:26:44;102522.75;;;-7.02;100.00
51229;BME280;37304;52.216;6.874;2022-12-18T08:31:44;102516.69;;;-6.83;100.00
51229;BME280;37304;52.216;6.874;2022-12-18T08:36:45;102505.41;;;-6.76;100.00
51229;BME280;37304;52.216;6.874;2022-12-18T08:41:45;102508.06;;;-6.64;100.00
51229;BME280;37304;52.216;6.874;2022-12-18T08:47:06;102502.84;;;-6.55;100.00
51229;BME280;37304;52.216;6.874;2022-12-18T08:52:07;102497.63;;;-6.47;100.00
51229;BME280;37304;52.216;6.874;2022-12-18T08:57:07;102488.59;;;-5.78;100.00
51229;BME280;37304;52.216;6.874;2022-12-18T09:02:10;102477.72;;;-4.25;100.00
51229;BME280;37304;52.216;6.874;2022-12-18T09:07:11;102490.00;;;-3.94;100.00
51229;BME280;37304;52.216;6.874;2022-12-18T09:12:14;102480.63;;;-2.80;100.00
51229;BME280;37304;52.216;6.874;2022-12-18T09:17:17;102474.22;;;-3.00;100.00
51229;BME280;37304;52.216;6.874;2022-12-18T09:22:18;102477.75;;;-2.98;100.00
51229;BME280;37304;52.216;6.874;2022-12-18T09:27:19;102474.91;;;-2.22;100.00
51229;BME280;37304;52.216;6.874;2022-12-18T09:32:20;102480.13;;;-1.20;100.00
51229;BME280;37304;52.216;6.874;2022-12-18T09:37:31;102490.91;;;-0.96;100.00
51229;BME280;37304;52.216;6.874;2022-12-18T09:42:38;102484.16;;;-0.49;100.00
51229;BME280;37304;52.216;6.874;2022-12-18T09:47:39;102457.16;;;-0.12;100.00
51229;BME280;37304;52.216;6.874;2022-12-18T09:52:47;102449.06;;;-1.71;100.00
51229;BME280;37304;52.216;6.874;2022-12-18T09:57:53;102450.56;;;-2.72;100.00
51229;BME280;37304;52.216;6.874;2022-12-18T10:03:03;102464.63;;;-3.04;100.00
51229;BME280;37304;52.216;6.874;2022-12-18T10:08:11;102465.69;;;-3.01;100.00
51229;BME280;37304;52.216;6.874;2022-12-18T10:24:14;102434.69;;;-3.22;100.00
51229;BME280;37304;52.216;6.874;2022-12-18T10:29:18;102408.66;;;-3.31;100.00
51229;BME280;37304;52.216;6.874;2022-12-18T10:34:19;102384.31;;;-3.14;100.00
51229;BME280;37304;52.216;6.874;2022-12-18T10:39:24;102374.31;;;-3.25;100.00
51229;BME280;37304;52.216;6.874;2022-12-18T10:44:26;102354.66;;;-3.00;100.00
51229;BME280;37304;52.216;6.874;2022-12-18T10:49:29;102351.44;;;-3.11;100.00
51229;BME280;37304;52.216;6.874;2022-12-18T10:54:32;102355.16;;;-3.06;100.00
51229;BME280;37304;52.216;6.874;2022-12-18T10:59:51;102357.00;;;-2.90;100.00
51229;BME280;37304;52.216;6.874;2022-12-18T11:04:52;102351.13;;;-2.89;100.00
51229;BME280;37304;52.216;6.874;2022-12-18T11:10:00;102337.41;;;-2.78;100.00
51229;BME280;37304;52.216;6.874;2022-12-18T11:15:01;102329.91;;;-2.89;100.00
51229;BME280;37304;52.216;6.874;2022-12-18T11:20:06;102330.75;;;-2.75;100.00
51229;BME280;37304;52.216;6.874;2022-12-18T11:25:19;102336.41;;;-2.66;100.00
51229;BME280;37304;52.216;6.874;2022-12-18T11:35:45;102321.41;;;-2.90;100.00
51229;BME280;37304;52.216;6.874;2022-12-18T11:40:53;102303.47;;;-2.78;100.00
51229;BME280;37304;52.216;6.874;2022-12-18T11:46:00;102286.25;;;-2.82;100.00
51229;BME280;37304;52.216;6.874;2022-12-18T11:51:05;102286.47;;;-2.93;100.00
51229;BME280;37304;52.216;6.874;2022-12-18T12:02:01;102296.69;;;-2.64;100.00
51229;BME280;37304;52.216;6.874;2022-12-18T12:39:20;102215.69;;;-2.56;100.00
51229;BME280;37304;52.216;6.874;2022-12-18T12:44:43;102205.88;;;-2.50;100.00
51229;BME280;37304;52.216;6.874;2022-12-18T12:49:45;102203.59;;;-2.45;100.00
51229;BME280;37304;52.216;6.874;2022-12-18T12:54:47;102205.38;;;-2.44;100.00
51229;BME280;37304;52.216;6.874;2022-12-18T13:05:23;102190.91;;;-2.30;100.00
51229;BME280;37304;52.216;6.874;2022-12-18T13:10:31;102193.97;;;-2.36;100.00
51229;BME280;37304;52.216;6.874;2022-12-18T13:15:40;102183.28;;;-2.30;100.00
51229;BME280;37304;52.216;6.874;2022-12-18T13:21:08;102178.19;;;-2.30;100.00
51229;BME280;37304;52.216;6.874;2022-12-18T13:36:39;102161.66;;;-2.37;100.00
51229;BME280;37304;52.216;6.874;2022-12-18T13:41:41;102164.09;;;-2.39;100.00
51229;BME280;37304;52.216;6.874;2022-12-18T13:51:47;102148.03;;;-2.38;100.00
51229;BME280;37304;52.216;6.874;2022-12-18T13:56:48;102142.75;;;-2.41;100.00
51229;BME280;37304;52.216;6.874;2022-12-18T14:01:54;102129.34;;;-2.38;100.00
51229;BME280;37304;52.216;6.874;2022-12-18T14:07:01;102118.38;;;-2.37;100.00
51229;BME280;37304;52.216;6.874;2022-12-18T14:12:03;102117.91;;;-2.45;100.00
51229;BME280;37304;52.216;6.874;2022-12-18T14:17:22;102116.34;;;-2.43;100.00
51229;BME280;37304;52.216;6.874;2022-12-18T14:22:45;102092.47;;;-2.45;100.00
51229;BME280;37304;52.216;6.874;2022-12-18T14:33:12;102084.03;;;-2.44;100.00
51229;BME280;37304;52.216;6.874;2022-12-18T14:43:20;102086.91;;;-2.38;100.00
51229;BME280;37304;52.216;6.874;2022-12-18T14:53:36;102080.88;;;-2.40;100.00
51229;BME280;37304;52.216;6.874;2022-12-18T14:58:37;102077.47;;;-2.40;100.00
51229;BME280;37304;52.216;6.874;2022-12-18T15:03:43;102071.47;;;-2.41;100.00
51229;BME280;37304;52.216;6.874;2022-12-18T15:08:47;102065.59;;;-2.40;100.00
51229;BME280;37304;52.216;6.874;2022-12-18T15:13:48;102058.75;;;-2.41;100.00
51229;BME280;37304;52.216;6.874;2022-12-18T15:18:48;102048.66;;;-2.39;100.00
51229;BME280;37304;52.216;6.874;2022-12-18T15:23:52;102046.13;;;-2.39;100.00
51229;BME280;37304;52.216;6.874;2022-12-18T15:28:55;102043.56;;;-2.39;100.00
51229;BME280;37304;52.216;6.874;2022-12-18T15:38:58;102026.78;;;-2.36;100.00
51229;BME280;37304;52.216;6.874;2022-12-18T15:43:59;102023.53;;;-2.33;100.00
51229;BME280;37304;52.216;6.874;2022-12-18T15:49:00;102020.09;;;-2.34;100.00
51229;BME280;37304;52.216;6.874;2022-12-18T15:54:16;102014.47;;;-2.28;100.00
51229;BME280;37304;52.216;6.874;2022-12-18T15:59:18;102025.72;;;-2.24;100.00
51229;BME280;37304;52.216;6.874;2022-12-18T16:04:20;102031.78;;;-2.22;100.00
51229;BME280;37304;52.216;6.874;2022-12-18T16:09:21;102020.97;;;-2.18;100.00
51229;BME280;37304;52.216;6.874;2022-12-18T16:14:24;102024.31;;;-2.19;100.00
51229;BME280;37304;52.216;6.874;2022-12-18T16:19:27;101997.78;;;-2.23;100.00
51229;BME280;37304;52.216;6.874;2022-12-18T16:24:30;101985.16;;;-2.21;100.00
51229;BME280;37304;52.216;6.874;2022-12-18T16:29:30;101975.66;;;-2.24;100.00
51229;BME280;37304;52.216;6.874;2022-12-18T16:34:33;101980.22;;;-2.18;100.00
51229;BME280;37304;52.216;6.874;2022-12-18T16:39:34;101980.13;;;-2.20;100.00
51229;BME280;37304;52.216;6.874;2022-12-18T16:44:35;101990.47;;;-2.16;100.00
51229;BME280;37304;52.216;6.874;2022-12-18T16:49:35;101968.50;;;-2.14;100.00
51229;BME280;37304;52.216;6.874;2022-12-18T16:54:36;101966.06;;;-2.13;100.00
51229;BME280;37304;52.216;6.874;2022-12-18T16:59:36;101959.44;;;-2.09;100.00
51229;BME280;37304;52.216;6.874;2022-12-18T17:04:36;101963.28;;;-2.01;100.00
51229;BME280;37304;52.216;6.874;2022-12-18T17:09:37;101952.38;;;-1.98;100.00
51229;BME280;37304;52.216;6.874;2022-12-18T17:14:38;101946.66;;;-1.94;100.00
51229;BME280;37304;52.216;6.874;2022-12-18T17:19:38;101934.31;;;-1.86;100.00
51229;BME280;37304;52.216;6.874;2022-12-18T17:24:39;101940.91;;;-1.90;100.00
51229;BME280;37304;52.216;6.874;2022-12-18T17:29:39;101934.31;;;-1.86;100.00
51229;BME280;37304;52.216;6.874;2022-12-18T17:34:40;101937.88;;;-1.83;100.00
51229;BME280;37304;52.216;6.874;2022-12-18T17:39:40;101924.50;;;-1.79;100.00
51229;BME280;37304;52.216;6.874;2022-12-18T17:44:42;101928.91;;;-1.76;100.00
51229;BME280;37304;52.216;6.874;2022-12-18T17:49:42;101928.09;;;-1.75;100.00
51229;BME280;37304;52.216;6.874;2022-12-18T17:54:43;101930.16;;;-1.68;100.00
51229;BME280;37304;52.216;6.874;2022-12-18T17:59:43;101915.03;;;-1.65;100.00
51229;BME280;37304;52.216;6.874;2022-12-18T18:04:43;101931.38;;;-1.61;100.00
51229;BME280;37304;52.216;6.874;2022-12-18T18:09:44;101928.22;;;-1.55;100.00
51229;BME280;37304;52.216;6.874;2022-12-18T18:14:44;101910.63;;;-1.51;100.00
51229;BME280;37304;52.216;6.874;2022-12-18T18:19:44;101904.78;;;-1.48;100.00
51229;BME280;37304;52.216;6.874;2022-12-18T18:24:45;101900.25;;;-1.37;100.00
51229;BME280;37304;52.216;6.874;2022-12-18T18:29:46;101911.44;;;-1.34;100.00
51229;BME280;37304;52.216;6.874;2022-12-18T18:34:46;101918.53;;;-1.28;100.00
51229;BME280;37304;52.216;6.874;2022-12-18T18:39:47;101924.69;;;-1.24;100.00
51229;BME280;37304;52.216;6.874;2022-12-18T18:44:47;101934.25;;;-1.20;100.00
51229;BME280;37304;52.216;6.874;2022-12-18T18:49:54;101936.06;;;-1.18;100.00
51229;BME280;37304;52.216;6.874;2022-12-18T18:54:54;101941.25;;;-1.16;100.00
51229;BME280;37304;52.216;6.874;2022-12-18T18:59:54;101937.88;;;-1.15;100.00
51229;BME280;37304;52.216;6.874;2022-12-18T19:04:55;101937.94;;;-1.13;100.00
51229;BME280;37304;52.216;6.874;2022-12-18T19:10:01;101924.47;;;-1.11;100.00
51229;BME280;37304;52.216;6.874;2022-12-18T19:15:05;101933.16;;;-1.07;100.00
51229;BME280;37304;52.216;6.874;2022-12-18T19:20:27;101931.41;;;-1.08;100.00
51229;BME280;37304;52.216;6.874;2022-12-18T19:25:28;101917.97;;;-1.04;100.00
51229;BME280;37304;52.216;6.874;2022-12-18T19:30:41;101908.56;;;-1.05;100.00
51229;BME280;37304;52.216;6.874;2022-12-18T19:35:48;101911.28;;;-1.02;100.00
51229;BME280;37304;52.216;6.874;2022-12-18T19:40:48;101907.13;;;-1.00;100.00
51229;BME280;37304;52.216;6.874;2022-12-18T19:45:55;101903.06;;;-0.96;100.00
51229;BME280;37304;52.216;6.874;2022-12-18T19:51:26;101908.41;;;-0.92;100.00
51229;BME280;37304;52.216;6.874;2022-12-18T19:56:26;101886.38;;;-0.90;100.00
51229;BME280;37304;52.216;6.874;2022-12-18T20:01:47;101876.88;;;-0.92;100.00
51229;BME280;37304;52.216;6.874;2022-12-18T20:06:53;101887.19;;;-0.91;100.00
51229;BME280;37304;52.216;6.874;2022-12-18T20:11:54;101886.44;;;-0.88;100.00
51229;BME280;37304;52.216;6.874;2022-12-18T20:16:55;101888.13;;;-0.89;100.00
51229;BME280;37304;52.216;6.874;2022-12-18T20:21:58;101887.31;;;-0.88;100.00
51229;BME280;37304;52.216;6.874;2022-12-18T20:27:01;101892.47;;;-0.86;100.00
51229;BME280;37304;52.216;6.874;2022-12-18T20:32:03;101884.75;;;-0.88;100.00
51229;BME280;37304;52.216;6.874;2022-12-18T20:37:07;101890.06;;;-0.83;100.00
51229;BME280;37304;52.216;6.874;2022-12-18T20:42:07;101892.63;;;-0.83;100.00
51229;BME280;37304;52.216;6.874;2022-12-18T20:47:08;101893.66;;;-0.79;100.00
51229;BME280;37304;52.216;6.874;2022-12-18T20:52:11;101886.06;;;-0.78;100.00
51229;BME280;37304;52.216;6.874;2022-12-18T20:57:14;101898.28;;;-0.70;100.00
51229;BME280;37304;52.216;6.874;2022-12-18T21:02:15;101887.44;;;-0.66;100.00
51229;BME280;37304;52.216;6.874;2022-12-18T21:07:29;101887.59;;;-0.63;100.00
51229;BME280;37304;52.216;6.874;2022-12-18T21:12:44;101886.19;;;-0.56;100.00
51229;BME280;37304;52.216;6.874;2022-12-18T21:17:48;101884.44;;;-0.57;100.00
51229;BME280;37304;52.216;6.874;2022-12-18T21:22:49;101881.75;;;-0.61;100.00
51229;BME280;37304;52.216;6.874;2022-12-18T21:27:49;101881.75;;;-0.61;100.00
51229;BME280;37304;52.216;6.874;2022-12-18T21:32:51;101879.94;;;-0.63;100.00
51229;BME280;37304;52.216;6.874;2022-12-18T21:37:51;101878.38;;;-0.60;100.00
51229;BME280;37304;52.216;6.874;2022-12-18T21:42:52;101877.28;;;-0.65;100.00
51229;BME280;37304;52.216;6.874;2022-12-18T21:48:11;101886.66;;;-0.65;100.00
51229;BME280;37304;52.216;6.874;2022-12-18T21:53:11;101885.75;;;-0.66;100.00
51229;BME280;37304;52.216;6.874;2022-12-18T21:58:11;101879.63;;;-0.69;100.00
51229;BME280;37304;52.216;6.874;2022-12-18T22:03:12;101874.69;;;-0.66;100.00
51229;BME280;37304;52.216;6.874;2022-12-18T22:08:13;101867.59;;;-0.72;100.00
51229;BME280;37304;52.216;6.874;2022-12-18T22:13:14;101862.56;;;-0.70;100.00
51229;BME280;37304;52.216;6.874;2022-12-18T22:18:14;101855.78;;;-0.70;100.00
51229;BME280;37304;52.216;6.874;2022-12-18T22:23:17;101851.63;;;-0.68;100.00
51229;BME280;37304;52.216;6.874;2022-12-18T22:28:17;101842.13;;;-0.70;100.00
51229;BME280;37304;52.216;6.874;2022-12-18T22:33:36;101827.56;;;-0.73;100.00
51229;BME280;37304;52.216;6.874;2022-12-18T22:38:37;101816.47;;;-0.74;100.00
51229;BME280;37304;52.216;6.874;2022-12-18T22:43:40;101816.56;;;-0.72;100.00
51229;BME280;37304;52.216;6.874;2022-12-18T22:48:43;101806.25;;;-0.74;100.00
51229;BME280;37304;52.216;6.874;2022-12-18T22:53:44;101803.94;;;-0.69;100.00
51229;BME280;37304;52.216;6.874;2022-12-18T22:58:47;101803.94;;;-0.69;100.00
51229;BME280;37304;52.216;6.874;2022-12-18T23:03:49;101786.78;;;-0.71;100.00
51229;BME280;37304;52.216;6.874;2022-12-18T23:08:49;101786.88;;;-0.70;100.00
51229;BME280;37304;52.216;6.874;2022-12-18T23:13:50;101778.44;;;-0.67;100.00
51229;BME280;37304;52.216;6.874;2022-12-18T23:18:54;101774.31;;;-0.65;100.00
51229;BME280;37304;52.216;6.874;2022-12-18T23:23:56;101755.44;;;-0.69;100.00
51229;BME280;37304;52.216;6.874;2022-12-18T23:28:57;101742.78;;;-0.66;100.00
51229;BME280;37304;52.216;6.874;2022-12-18T23:33:58;101742.06;;;-0.63;100.00
51229;BME280;37304;52.216;6.874;2022-12-18T23:39:00;101718.47;;;-0.57;100.00
51229;BME280;37304;52.216;6.874;2022-12-18T23:44:03;101715.19;;;-0.55;100.00
51229;BME280;37304;52.216;6.874;2022-12-18T23:49:04;101704.09;;;-0.55;100.00
51229;BME280;37304;52.216;6.874;2022-12-18T23:54:04;101696.56;;;-0.52;100.00
51229;BME280;37304;52.216;6.874;2022-12-18T23:59:05;101674.59;;;-0.49;100.00
